This is the latest recevied weather packets stored in our database for station/object DB0SVX. If no packets are shown the sender has not sent any weather packets the latest 1 day(s).
| Time | Temp. | Humidity | Pressure | Rain* | Wind** | Luminosity | Snow |
|---|---|---|---|---|---|---|---|
| 1778013621 | 10.56° C | 19% | 1007.9 hPa | 0.51 mm | 0.89 m/s, 337° | - | - |
| 1778012721 | 10.56° C | 21% | 1008.2 hPa | 0.51 mm | 0 m/s | - | - |
| 1778011821 | 10.56° C | 24% | 1008.2 hPa | 1.02 mm | 0 m/s | - | - |
| 1778010921 | 11.11° C | 28% | 1008 hPa | 1.02 mm | 0 m/s | - | - |
| 1778010022 | 11.67° C | 30% | 1008.2 hPa | 0.51 mm | 8.05 m/s, 202° | - | - |
| 1778009121 | 12.22° C | 29% | 1007.9 hPa | 0.51 mm | 4.47 m/s, 270° | - | - |
| 1778008222 | 12.78° C | 32% | 1007.4 hPa | 0 mm | 7.15 m/s, 22° | - | - |
| 1778007321 | 12.78° C | 38% | 1007.2 hPa | 0 mm | 0 m/s | - | - |
| 1778006421 | 13.33° C | 41% | 1006.9 hPa | 0 mm | 0 m/s | - | - |
| 1778005521 | 13.89° C | 42% | 1006.5 hPa | 0 mm | 0.89 m/s, 315° | - | - |
| 1778004621 | 13.89° C | 45% | 1006.5 hPa | 0 mm | 0 m/s | - | - |
| 1778003721 | 15° C | 45% | 1006.5 hPa | 0 mm | 0 m/s | - | - |
| 1778002821 | 15.56° C | 45% | 1006.5 hPa | 0 mm | 0 m/s | - | - |
| 1778001921 | 16.11° C | 45% | 1006.2 hPa | 0 mm | 0 m/s | - | - |
| 1778001021 | 16.11° C | 45% | 1006 hPa | 0 mm | 0 m/s | - | - |
| 1778000121 | 16.67° C | 44% | 1005.7 hPa | 0 mm | 0.89 m/s, 135° | - | - |
| 1777999221 | 16.11° C | 44% | 1005.7 hPa | 0 mm | 0 m/s | - | - |
| 1777998325 | 15.56° C | 47% | 1005.7 hPa | 0 mm | 0.89 m/s, 135° | - | - |
| 1777997421 | 16.67° C | 45% | 1006.2 hPa | 0 mm | 0 m/s | - | - |
| 1777996521 | 18.33° C | 43% | 1006.2 hPa | 0 mm | 0 m/s | - | - |
| 1777995621 | 18.89° C | 42% | 1006.2 hPa | 0 mm | 0 m/s | - | - |
| 1777994721 | 19.44° C | 41% | 1006.2 hPa | 0 mm | 0 m/s | - | - |
| 1777993821 | 20° C | 40% | 1006.2 hPa | 0 mm | 0 m/s | - | - |
| 1777992921 | 20.56° C | 40% | 1006 hPa | 0 mm | 0 m/s | - | - |
| 1777992021 | 20° C | 40% | 1006.2 hPa | 0 mm | 2.24 m/s, 157° | - | - |
* Rain latest hour (hover to see other rain measurements)
** Current wind speed in m/s (hover to see current wind gust speed)